sensor_id;sensor_type;location;lat;lon;timestamp;P1;durP1;ratioP1;P2;durP2;ratioP2
18580;SDS011;9420;50.876;7.012;2023-06-19T00:01:38;5.23;;;4.73;;
18580;SDS011;9420;50.876;7.012;2023-06-19T00:04:05;7.93;;;4.27;;
18580;SDS011;9420;50.876;7.012;2023-06-19T00:06:31;6.07;;;4.73;;
18580;SDS011;9420;50.876;7.012;2023-06-19T00:08:59;11.13;;;5.93;;
18580;SDS011;9420;50.876;7.012;2023-06-19T00:11:26;5.27;;;4.77;;
18580;SDS011;9420;50.876;7.012;2023-06-19T00:13:52;6.50;;;5.00;;
18580;SDS011;9420;50.876;7.012;2023-06-19T00:16:19;8.63;;;5.17;;
18580;SDS011;9420;50.876;7.012;2023-06-19T00:18:45;5.77;;;5.27;;
18580;SDS011;9420;50.876;7.012;2023-06-19T00:21:12;6.37;;;5.50;;
18580;SDS011;9420;50.876;7.012;2023-06-19T00:23:39;5.97;;;4.67;;
18580;SDS011;9420;50.876;7.012;2023-06-19T00:26:07;5.87;;;4.70;;
18580;SDS011;9420;50.876;7.012;2023-06-19T00:28:33;6.23;;;5.63;;
18580;SDS011;9420;50.876;7.012;2023-06-19T00:31:03;6.83;;;5.30;;
18580;SDS011;9420;50.876;7.012;2023-06-19T00:33:31;5.93;;;5.33;;
18580;SDS011;9420;50.876;7.012;2023-06-19T00:35:58;6.73;;;5.70;;
18580;SDS011;9420;50.876;7.012;2023-06-19T00:38:26;7.17;;;6.27;;
18580;SDS011;9420;50.876;7.012;2023-06-19T00:40:52;6.10;;;5.50;;
18580;SDS011;9420;50.876;7.012;2023-06-19T00:43:20;7.03;;;6.10;;
18580;SDS011;9420;50.876;7.012;2023-06-19T00:45:47;6.50;;;5.90;;
18580;SDS011;9420;50.876;7.012;2023-06-19T00:48:14;6.53;;;5.77;;
18580;SDS011;9420;50.876;7.012;2023-06-19T00:50:41;6.40;;;5.27;;
18580;SDS011;9420;50.876;7.012;2023-06-19T00:53:09;6.00;;;5.40;;
18580;SDS011;9420;50.876;7.012;2023-06-19T00:55:35;6.93;;;5.90;;
18580;SDS011;9420;50.876;7.012;2023-06-19T00:58:03;6.10;;;5.50;;
18580;SDS011;9420;50.876;7.012;2023-06-19T01:00:31;9.07;;;5.70;;
18580;SDS011;9420;50.876;7.012;2023-06-19T01:02:58;7.17;;;6.47;;
18580;SDS011;9420;50.876;7.012;2023-06-19T01:05:25;7.83;;;6.23;;
18580;SDS011;9420;50.876;7.012;2023-06-19T01:07:52;8.70;;;6.47;;
18580;SDS011;9420;50.876;7.012;2023-06-19T01:10:26;7.77;;;6.40;;
18580;SDS011;9420;50.876;7.012;2023-06-19T01:12:56;7.03;;;6.30;;
18580;SDS011;9420;50.876;7.012;2023-06-19T01:15:25;6.77;;;6.10;;
18580;SDS011;9420;50.876;7.012;2023-06-19T01:17:53;13.10;;;6.57;;
18580;SDS011;9420;50.876;7.012;2023-06-19T01:20:21;6.00;;;5.50;;
18580;SDS011;9420;50.876;7.012;2023-06-19T01:22:49;7.43;;;6.73;;
18580;SDS011;9420;50.876;7.012;2023-06-19T01:25:15;7.03;;;6.23;;
18580;SDS011;9420;50.876;7.012;2023-06-19T01:27:42;6.80;;;6.20;;
18580;SDS011;9420;50.876;7.012;2023-06-19T01:30:09;12.63;;;7.30;;
18580;SDS011;9420;50.876;7.012;2023-06-19T01:32:40;7.57;;;6.77;;
18580;SDS011;9420;50.876;7.012;2023-06-19T01:35:14;9.27;;;7.07;;
18580;SDS011;9420;50.876;7.012;2023-06-19T01:37:43;14.03;;;7.77;;
18580;SDS011;9420;50.876;7.012;2023-06-19T01:40:14;10.47;;;6.80;;
18580;SDS011;9420;50.876;7.012;2023-06-19T01:42:41;8.07;;;7.03;;
18580;SDS011;9420;50.876;7.012;2023-06-19T01:45:09;7.30;;;6.53;;
18580;SDS011;9420;50.876;7.012;2023-06-19T01:47:36;8.30;;;7.50;;
18580;SDS011;9420;50.876;7.012;2023-06-19T01:50:03;8.83;;;7.13;;
18580;SDS011;9420;50.876;7.012;2023-06-19T01:52:30;7.80;;;7.00;;
18580;SDS011;9420;50.876;7.012;2023-06-19T01:54:56;8.30;;;7.43;;
18580;SDS011;9420;50.876;7.012;2023-06-19T01:57:24;7.97;;;7.17;;
18580;SDS011;9420;50.876;7.012;2023-06-19T01:59:51;9.57;;;7.83;;
18580;SDS011;9420;50.876;7.012;2023-06-19T02:02:18;12.53;;;7.80;;
18580;SDS011;9420;50.876;7.012;2023-06-19T02:04:44;9.80;;;7.23;;
18580;SDS011;9420;50.876;7.012;2023-06-19T02:07:11;8.90;;;7.40;;
18580;SDS011;9420;50.876;7.012;2023-06-19T02:09:37;10.33;;;7.20;;
18580;SDS011;9420;50.876;7.012;2023-06-19T02:12:04;8.57;;;7.27;;
18580;SDS011;9420;50.876;7.012;2023-06-19T02:14:33;9.87;;;7.57;;
18580;SDS011;9420;50.876;7.012;2023-06-19T02:16:59;9.17;;;7.43;;
18580;SDS011;9420;50.876;7.012;2023-06-19T02:19:26;9.57;;;7.60;;
18580;SDS011;9420;50.876;7.012;2023-06-19T02:21:52;8.83;;;7.97;;
18580;SDS011;9420;50.876;7.012;2023-06-19T02:24:19;9.07;;;7.67;;
18580;SDS011;9420;50.876;7.012;2023-06-19T02:26:45;9.40;;;7.70;;
18580;SDS011;9420;50.876;7.012;2023-06-19T02:29:12;8.83;;;7.53;;
18580;SDS011;9420;50.876;7.012;2023-06-19T02:31:40;8.50;;;7.03;;
18580;SDS011;9420;50.876;7.012;2023-06-19T02:34:07;9.60;;;7.57;;
18580;SDS011;9420;50.876;7.012;2023-06-19T02:36:34;8.10;;;7.30;;
18580;SDS011;9420;50.876;7.012;2023-06-19T02:39:00;10.27;;;7.27;;
18580;SDS011;9420;50.876;7.012;2023-06-19T02:41:28;9.37;;;7.17;;
18580;SDS011;9420;50.876;7.012;2023-06-19T02:43:54;11.67;;;7.70;;
18580;SDS011;9420;50.876;7.012;2023-06-19T02:46:21;8.17;;;7.20;;
18580;SDS011;9420;50.876;7.012;2023-06-19T02:48:48;12.17;;;7.93;;
18580;SDS011;9420;50.876;7.012;2023-06-19T02:51:15;11.40;;;7.83;;
18580;SDS011;9420;50.876;7.012;2023-06-19T02:53:42;9.67;;;6.93;;
18580;SDS011;9420;50.876;7.012;2023-06-19T02:56:09;12.37;;;7.93;;
18580;SDS011;9420;50.876;7.012;2023-06-19T02:58:35;9.17;;;8.17;;
18580;SDS011;9420;50.876;7.012;2023-06-19T03:01:02;9.87;;;8.60;;
18580;SDS011;9420;50.876;7.012;2023-06-19T03:03:32;8.83;;;7.83;;
18580;SDS011;9420;50.876;7.012;2023-06-19T03:06:03;12.80;;;7.80;;
18580;SDS011;9420;50.876;7.012;2023-06-19T03:08:30;7.43;;;6.57;;
18580;SDS011;9420;50.876;7.012;2023-06-19T03:10:57;14.23;;;7.33;;
18580;SDS011;9420;50.876;7.012;2023-06-19T03:13:24;8.37;;;7.50;;
18580;SDS011;9420;50.876;7.012;2023-06-19T03:15:51;10.07;;;7.17;;
18580;SDS011;9420;50.876;7.012;2023-06-19T03:18:17;9.47;;;6.93;;
18580;SDS011;9420;50.876;7.012;2023-06-19T03:20:44;9.50;;;7.00;;
18580;SDS011;9420;50.876;7.012;2023-06-19T03:23:12;13.93;;;7.53;;
18580;SDS011;9420;50.876;7.012;2023-06-19T03:25:38;9.73;;;7.20;;
18580;SDS011;9420;50.876;7.012;2023-06-19T03:28:07;11.87;;;7.63;;
18580;SDS011;9420;50.876;7.012;2023-06-19T03:30:34;11.73;;;8.23;;
18580;SDS011;9420;50.876;7.012;2023-06-19T03:33:00;12.50;;;7.90;;
18580;SDS011;9420;50.876;7.012;2023-06-19T03:35:27;13.73;;;8.33;;
18580;SDS011;9420;50.876;7.012;2023-06-19T03:37:54;11.17;;;7.87;;
18580;SDS011;9420;50.876;7.012;2023-06-19T03:40:22;11.57;;;7.43;;
18580;SDS011;9420;50.876;7.012;2023-06-19T03:42:48;15.47;;;8.03;;
18580;SDS011;9420;50.876;7.012;2023-06-19T03:45:15;9.10;;;6.23;;
18580;SDS011;9420;50.876;7.012;2023-06-19T03:47:41;8.43;;;6.77;;
18580;SDS011;9420;50.876;7.012;2023-06-19T03:50:08;7.00;;;6.30;;
18580;SDS011;9420;50.876;7.012;2023-06-19T03:52:36;6.87;;;6.27;;
18580;SDS011;9420;50.876;7.012;2023-06-19T03:55:03;7.00;;;6.30;;
18580;SDS011;9420;50.876;7.012;2023-06-19T03:57:31;10.10;;;6.33;;
18580;SDS011;9420;50.876;7.012;2023-06-19T03:59:58;8.63;;;5.87;;
18580;SDS011;9420;50.876;7.012;2023-06-19T04:02:25;7.60;;;5.93;;
18580;SDS011;9420;50.876;7.012;2023-06-19T04:04:52;8.33;;;6.43;;
18580;SDS011;9420;50.876;7.012;2023-06-19T04:07:19;7.60;;;6.27;;
18580;SDS011;9420;50.876;7.012;2023-06-19T04:09:45;7.90;;;6.00;;
18580;SDS011;9420;50.876;7.012;2023-06-19T04:12:12;6.23;;;5.57;;
18580;SDS011;9420;50.876;7.012;2023-06-19T04:14:40;6.83;;;6.07;;
18580;SDS011;9420;50.876;7.012;2023-06-19T04:17:07;7.20;;;5.77;;
18580;SDS011;9420;50.876;7.012;2023-06-19T04:19:33;6.03;;;5.03;;
18580;SDS011;9420;50.876;7.012;2023-06-19T04:22:00;6.83;;;5.30;;
18580;SDS011;9420;50.876;7.012;2023-06-19T04:24:26;6.43;;;5.10;;
18580;SDS011;9420;50.876;7.012;2023-06-19T04:26:53;6.63;;;4.90;;
18580;SDS011;9420;50.876;7.012;2023-06-19T04:29:19;8.20;;;4.30;;
18580;SDS011;9420;50.876;7.012;2023-06-19T04:31:47;8.23;;;4.93;;
18580;SDS011;9420;50.876;7.012;2023-06-19T04:34:15;8.70;;;5.00;;
18580;SDS011;9420;50.876;7.012;2023-06-19T04:36:42;9.93;;;4.73;;
18580;SDS011;9420;50.876;7.012;2023-06-19T04:39:09;5.70;;;5.20;;
18580;SDS011;9420;50.876;7.012;2023-06-19T04:41:36;5.63;;;4.57;;
18580;SDS011;9420;50.876;7.012;2023-06-19T04:44:03;6.93;;;5.00;;
18580;SDS011;9420;50.876;7.012;2023-06-19T04:46:31;6.37;;;4.73;;
18580;SDS011;9420;50.876;7.012;2023-06-19T04:48:59;5.03;;;4.53;;
18580;SDS011;9420;50.876;7.012;2023-06-19T04:51:29;6.23;;;4.80;;
18580;SDS011;9420;50.876;7.012;2023-06-19T04:53:57;8.33;;;5.43;;
18580;SDS011;9420;50.876;7.012;2023-06-19T04:56:24;7.57;;;4.83;;
18580;SDS011;9420;50.876;7.012;2023-06-19T04:58:50;11.20;;;6.00;;
18580;SDS011;9420;50.876;7.012;2023-06-19T05:01:17;7.43;;;5.70;;
18580;SDS011;9420;50.876;7.012;2023-06-19T05:03:47;7.17;;;4.57;;
18580;SDS011;9420;50.876;7.012;2023-06-19T05:06:15;5.53;;;4.50;;
18580;SDS011;9420;50.876;7.012;2023-06-19T05:08:43;7.37;;;5.03;;
18580;SDS011;9420;50.876;7.012;2023-06-19T05:11:09;7.47;;;5.40;;
18580;SDS011;9420;50.876;7.012;2023-06-19T05:13:36;5.93;;;5.13;;
18580;SDS011;9420;50.876;7.012;2023-06-19T05:16:03;8.20;;;5.83;;
18580;SDS011;9420;50.876;7.012;2023-06-19T05:18:29;6.90;;;4.77;;
18580;SDS011;9420;50.876;7.012;2023-06-19T05:20:56;5.43;;;4.27;;
18580;SDS011;9420;50.876;7.012;2023-06-19T05:23:24;13.83;;;4.83;;
18580;SDS011;9420;50.876;7.012;2023-06-19T05:25:51;7.83;;;5.23;;
18580;SDS011;9420;50.876;7.012;2023-06-19T05:28:17;6.87;;;4.80;;
18580;SDS011;9420;50.876;7.012;2023-06-19T05:30:44;5.70;;;4.40;;
18580;SDS011;9420;50.876;7.012;2023-06-19T05:33:11;4.47;;;4.00;;
18580;SDS011;9420;50.876;7.012;2023-06-19T05:35:40;5.50;;;4.47;;
18580;SDS011;9420;50.876;7.012;2023-06-19T05:38:07;7.47;;;4.67;;
18580;SDS011;9420;50.876;7.012;2023-06-19T05:40:35;7.23;;;5.27;;
18580;SDS011;9420;50.876;7.012;2023-06-19T05:43:02;9.03;;;5.57;;
18580;SDS011;9420;50.876;7.012;2023-06-19T05:45:29;9.60;;;5.13;;
18580;SDS011;9420;50.876;7.012;2023-06-19T05:47:55;5.60;;;4.30;;
18580;SDS011;9420;50.876;7.012;2023-06-19T05:50:22;6.20;;;4.83;;
18580;SDS011;9420;50.876;7.012;2023-06-19T05:52:48;7.47;;;4.97;;
18580;SDS011;9420;50.876;7.012;2023-06-19T05:55:15;9.23;;;4.83;;
18580;SDS011;9420;50.876;7.012;2023-06-19T05:57:43;11.53;;;4.40;;
18580;SDS011;9420;50.876;7.012;2023-06-19T06:00:10;5.90;;;4.67;;
18580;SDS011;9420;50.876;7.012;2023-06-19T06:02:39;6.20;;;4.63;;
18580;SDS011;9420;50.876;7.012;2023-06-19T06:05:06;5.50;;;4.53;;
18580;SDS011;9420;50.876;7.012;2023-06-19T06:07:35;8.03;;;4.80;;
18580;SDS011;9420;50.876;7.012;2023-06-19T06:10:01;5.77;;;3.97;;
18580;SDS011;9420;50.876;7.012;2023-06-19T06:12:28;6.27;;;4.27;;
18580;SDS011;9420;50.876;7.012;2023-06-19T06:14:56;9.70;;;4.47;;
18580;SDS011;9420;50.876;7.012;2023-06-19T06:17:23;7.90;;;4.40;;
18580;SDS011;9420;50.876;7.012;2023-06-19T06:19:49;6.10;;;3.50;;
18580;SDS011;9420;50.876;7.012;2023-06-19T06:22:16;6.03;;;3.63;;
18580;SDS011;9420;50.876;7.012;2023-06-19T06:24:43;7.47;;;4.27;;
18580;SDS011;9420;50.876;7.012;2023-06-19T06:27:11;5.50;;;3.97;;
18580;SDS011;9420;50.876;7.012;2023-06-19T06:29:38;4.97;;;3.70;;
18580;SDS011;9420;50.876;7.012;2023-06-19T06:32:06;5.57;;;3.97;;
18580;SDS011;9420;50.876;7.012;2023-06-19T06:34:35;5.40;;;3.60;;
18580;SDS011;9420;50.876;7.012;2023-06-19T06:37:02;3.97;;;3.53;;
18580;SDS011;9420;50.876;7.012;2023-06-19T06:39:29;4.33;;;3.80;;
18580;SDS011;9420;50.876;7.012;2023-06-19T06:41:56;4.53;;;3.40;;
18580;SDS011;9420;50.876;7.012;2023-06-19T06:44:22;6.37;;;4.10;;
18580;SDS011;9420;50.876;7.012;2023-06-19T06:46:49;4.33;;;3.53;;
18580;SDS011;9420;50.876;7.012;2023-06-19T06:49:17;6.93;;;4.10;;
18580;SDS011;9420;50.876;7.012;2023-06-19T06:51:43;6.67;;;4.10;;
18580;SDS011;9420;50.876;7.012;2023-06-19T06:54:10;4.63;;;3.60;;
18580;SDS011;9420;50.876;7.012;2023-06-19T06:56:37;6.93;;;3.87;;
18580;SDS011;9420;50.876;7.012;2023-06-19T06:59:03;3.97;;;3.50;;
18580;SDS011;9420;50.876;7.012;2023-06-19T07:01:31;7.13;;;3.00;;
18580;SDS011;9420;50.876;7.012;2023-06-19T07:03:57;12.93;;;3.70;;
18580;SDS011;9420;50.876;7.012;2023-06-19T07:06:25;5.90;;;3.10;;
18580;SDS011;9420;50.876;7.012;2023-06-19T07:08:52;5.17;;;3.30;;
18580;SDS011;9420;50.876;7.012;2023-06-19T07:11:19;11.20;;;4.33;;
18580;SDS011;9420;50.876;7.012;2023-06-19T07:13:45;3.70;;;3.33;;
18580;SDS011;9420;50.876;7.012;2023-06-19T07:16:12;4.20;;;3.30;;
18580;SDS011;9420;50.876;7.012;2023-06-19T07:18:39;3.43;;;3.07;;
18580;SDS011;9420;50.876;7.012;2023-06-19T07:21:07;5.30;;;3.60;;
18580;SDS011;9420;50.876;7.012;2023-06-19T07:23:40;3.30;;;3.00;;
18580;SDS011;9420;50.876;7.012;2023-06-19T07:26:07;6.03;;;3.27;;
18580;SDS011;9420;50.876;7.012;2023-06-19T07:28:34;4.53;;;3.07;;
18580;SDS011;9420;50.876;7.012;2023-06-19T07:31:01;5.53;;;2.57;;
18580;SDS011;9420;50.876;7.012;2023-06-19T07:33:28;3.13;;;2.83;;
18580;SDS011;9420;50.876;7.012;2023-06-19T07:35:54;4.50;;;2.30;;
18580;SDS011;9420;50.876;7.012;2023-06-19T07:38:21;4.33;;;2.20;;
18580;SDS011;9420;50.876;7.012;2023-06-19T07:40:49;3.10;;;2.47;;
18580;SDS011;9420;50.876;7.012;2023-06-19T07:43:16;4.97;;;2.10;;
18580;SDS011;9420;50.876;7.012;2023-06-19T07:45:43;4.33;;;2.30;;
18580;SDS011;9420;50.876;7.012;2023-06-19T07:48:09;4.67;;;1.50;;
18580;SDS011;9420;50.876;7.012;2023-06-19T07:50:36;1.13;;;0.93;;
18580;SDS011;9420;50.876;7.012;2023-06-19T07:53:03;0.93;;;0.80;;
18580;SDS011;9420;50.876;7.012;2023-06-19T07:55:30;1.47;;;1.13;;
18580;SDS011;9420;50.876;7.012;2023-06-19T07:57:58;1.33;;;1.10;;
18580;SDS011;9420;50.876;7.012;2023-06-19T08:00:24;1.17;;;1.07;;
18580;SDS011;9420;50.876;7.012;2023-06-19T08:02:51;3.70;;;1.17;;
18580;SDS011;9420;50.876;7.012;2023-06-19T08:05:17;2.30;;;1.37;;
18580;SDS011;9420;50.876;7.012;2023-06-19T08:07:44;1.87;;;1.13;;
18580;SDS011;9420;50.876;7.012;2023-06-19T08:10:11;0.77;;;0.77;;
18580;SDS011;9420;50.876;7.012;2023-06-19T08:12:38;2.53;;;1.23;;
18580;SDS011;9420;50.876;7.012;2023-06-19T08:15:07;2.17;;;1.20;;
18580;SDS011;9420;50.876;7.012;2023-06-19T08:17:34;1.63;;;1.27;;
18580;SDS011;9420;50.876;7.012;2023-06-19T08:20:01;1.43;;;1.10;;
18580;SDS011;9420;50.876;7.012;2023-06-19T08:22:30;2.83;;;1.47;;
18580;SDS011;9420;50.876;7.012;2023-06-19T08:24:56;2.57;;;1.30;;
18580;SDS011;9420;50.876;7.012;2023-06-19T08:27:23;4.00;;;1.90;;
18580;SDS011;9420;50.876;7.012;2023-06-19T08:29:50;1.60;;;1.50;;
18580;SDS011;9420;50.876;7.012;2023-06-19T08:32:17;1.57;;;1.00;;
18580;SDS011;9420;50.876;7.012;2023-06-19T08:34:46;5.80;;;1.73;;
18580;SDS011;9420;50.876;7.012;2023-06-19T08:37:13;1.20;;;1.10;;
18580;SDS011;9420;50.876;7.012;2023-06-19T08:39:39;1.40;;;1.30;;
18580;SDS011;9420;50.876;7.012;2023-06-19T08:42:06;2.93;;;1.23;;
18580;SDS011;9420;50.876;7.012;2023-06-19T08:44:34;3.23;;;1.70;;
18580;SDS011;9420;50.876;7.012;2023-06-19T08:47:01;4.33;;;1.43;;
18580;SDS011;9420;50.876;7.012;2023-06-19T08:49:30;4.43;;;1.63;;
18580;SDS011;9420;50.876;7.012;2023-06-19T08:51:58;3.80;;;1.70;;
18580;SDS011;9420;50.876;7.012;2023-06-19T08:54:25;3.07;;;1.43;;
18580;SDS011;9420;50.876;7.012;2023-06-19T08:56:51;3.23;;;1.50;;
18580;SDS011;9420;50.876;7.012;2023-06-19T08:59:22;2.17;;;1.40;;
18580;SDS011;9420;50.876;7.012;2023-06-19T09:01:51;2.47;;;1.67;;
18580;SDS011;9420;50.876;7.012;2023-06-19T09:04:20;3.50;;;1.83;;
18580;SDS011;9420;50.876;7.012;2023-06-19T09:06:50;2.00;;;1.20;;
18580;SDS011;9420;50.876;7.012;2023-06-19T09:09:18;1.37;;;1.20;;
18580;SDS011;9420;50.876;7.012;2023-06-19T09:11:56;2.50;;;1.80;;
18580;SDS011;9420;50.876;7.012;2023-06-19T09:14:24;2.42;;;1.80;;
18580;SDS011;9420;50.876;7.012;2023-06-19T09:16:50;5.70;;;1.95;;
18580;SDS011;9420;50.876;7.012;2023-06-19T09:19:19;3.65;;;1.70;;
18580;SDS011;9420;50.876;7.012;2023-06-19T09:21:46;5.87;;;1.73;;
18580;SDS011;9420;50.876;7.012;2023-06-19T09:24:15;2.73;;;1.60;;
18580;SDS011;9420;50.876;7.012;2023-06-19T09:26:41;2.40;;;1.73;;
18580;SDS011;9420;50.876;7.012;2023-06-19T09:29:11;2.60;;;1.97;;
18580;SDS011;9420;50.876;7.012;2023-06-19T09:31:38;8.27;;;1.73;;
18580;SDS011;9420;50.876;7.012;2023-06-19T09:34:06;5.15;;;1.92;;
18580;SDS011;9420;50.876;7.012;2023-06-19T09:36:36;4.53;;;2.13;;
18580;SDS011;9420;50.876;7.012;2023-06-19T09:39:03;3.22;;;1.98;;
18580;SDS011;9420;50.876;7.012;2023-06-19T09:41:32;3.70;;;1.70;;
18580;SDS011;9420;50.876;7.012;2023-06-19T09:43:59;3.97;;;1.90;;
18580;SDS011;9420;50.876;7.012;2023-06-19T09:46:29;2.63;;;2.00;;
18580;SDS011;9420;50.876;7.012;2023-06-19T09:48:58;6.07;;;2.08;;
18580;SDS011;9420;50.876;7.012;2023-06-19T09:51:29;2.80;;;2.42;;
18580;SDS011;9420;50.876;7.012;2023-06-19T09:53:57;3.00;;;2.08;;
18580;SDS011;9420;50.876;7.012;2023-06-19T09:56:28;2.92;;;2.63;;
18580;SDS011;9420;50.876;7.012;2023-06-19T09:58:57;8.70;;;2.42;;
18580;SDS011;9420;50.876;7.012;2023-06-19T10:01:25;4.63;;;2.40;;
18580;SDS011;9420;50.876;7.012;2023-06-19T10:04:04;6.80;;;2.28;;
18580;SDS011;9420;50.876;7.012;2023-06-19T10:06:31;2.33;;;2.13;;
18580;SDS011;9420;50.876;7.012;2023-06-19T10:09:06;5.93;;;2.72;;
18580;SDS011;9420;50.876;7.012;2023-06-19T10:11:44;7.13;;;2.40;;
18580;SDS011;9420;50.876;7.012;2023-06-19T10:14:13;3.28;;;2.25;;
18580;SDS011;9420;50.876;7.012;2023-06-19T10:16:43;5.43;;;2.83;;
18580;SDS011;9420;50.876;7.012;2023-06-19T10:19:13;6.57;;;2.50;;
18580;SDS011;9420;50.876;7.012;2023-06-19T10:21:44;3.67;;;3.28;;
18580;SDS011;9420;50.876;7.012;2023-06-19T10:24:13;4.45;;;2.50;;
18580;SDS011;9420;50.876;7.012;2023-06-19T10:26:43;3.97;;;2.85;;
18580;SDS011;9420;50.876;7.012;2023-06-19T10:29:15;5.90;;;2.92;;
18580;SDS011;9420;50.876;7.012;2023-06-19T10:31:42;3.47;;;2.90;;
18580;SDS011;9420;50.876;7.012;2023-06-19T10:34:10;5.07;;;2.97;;
18580;SDS011;9420;50.876;7.012;2023-06-19T10:36:38;3.28;;;2.50;;
18580;SDS011;9420;50.876;7.012;2023-06-19T10:39:04;3.90;;;2.97;;
18580;SDS011;9420;50.876;7.012;2023-06-19T10:41:32;8.02;;;3.40;;
18580;SDS011;9420;50.876;7.012;2023-06-19T10:43:59;5.30;;;3.15;;
18580;SDS011;9420;50.876;7.012;2023-06-19T10:46:31;6.95;;;2.83;;
18580;SDS011;9420;50.876;7.012;2023-06-19T10:48:59;3.63;;;2.75;;
18580;SDS011;9420;50.876;7.012;2023-06-19T10:51:26;3.83;;;2.80;;
18580;SDS011;9420;50.876;7.012;2023-06-19T10:53:53;5.90;;;3.28;;
18580;SDS011;9420;50.876;7.012;2023-06-19T10:56:20;5.57;;;3.38;;
18580;SDS011;9420;50.876;7.012;2023-06-19T10:58:47;6.15;;;3.30;;
18580;SDS011;9420;50.876;7.012;2023-06-19T11:01:14;6.60;;;2.90;;
18580;SDS011;9420;50.876;7.012;2023-06-19T11:03:42;4.75;;;3.30;;
18580;SDS011;9420;50.876;7.012;2023-06-19T11:06:08;8.10;;;3.45;;
18580;SDS011;9420;50.876;7.012;2023-06-19T11:08:35;8.88;;;3.03;;
18580;SDS011;9420;50.876;7.012;2023-06-19T11:11:02;7.55;;;3.47;;
18580;SDS011;9420;50.876;7.012;2023-06-19T11:13:28;6.97;;;3.28;;
18580;SDS011;9420;50.876;7.012;2023-06-19T11:15:57;6.03;;;2.92;;
18580;SDS011;9420;50.876;7.012;2023-06-19T11:18:24;4.43;;;3.70;;
18580;SDS011;9420;50.876;7.012;2023-06-19T11:20:52;3.92;;;2.95;;
18580;SDS011;9420;50.876;7.012;2023-06-19T11:23:24;5.43;;;3.55;;
18580;SDS011;9420;50.876;7.012;2023-06-19T11:25:51;6.10;;;3.17;;
18580;SDS011;9420;50.876;7.012;2023-06-19T11:28:18;4.45;;;3.00;;
18580;SDS011;9420;50.876;7.012;2023-06-19T11:30:47;10.18;;;2.78;;
18580;SDS011;9420;50.876;7.012;2023-06-19T11:33:16;5.43;;;3.58;;
18580;SDS011;9420;50.876;7.012;2023-06-19T11:35:47;6.55;;;3.67;;
18580;SDS011;9420;50.876;7.012;2023-06-19T11:38:17;4.80;;;2.85;;
18580;SDS011;9420;50.876;7.012;2023-06-19T11:40:45;7.80;;;3.55;;
18580;SDS011;9420;50.876;7.012;2023-06-19T11:43:12;4.13;;;3.50;;
18580;SDS011;9420;50.876;7.012;2023-06-19T11:45:49;4.75;;;3.10;;
18580;SDS011;9420;50.876;7.012;2023-06-19T11:48:21;5.65;;;2.95;;
18580;SDS011;9420;50.876;7.012;2023-06-19T11:50:48;9.63;;;3.35;;
18580;SDS011;9420;50.876;7.012;2023-06-19T11:53:17;5.07;;;4.00;;
18580;SDS011;9420;50.876;7.012;2023-06-19T11:55:45;5.20;;;3.70;;
18580;SDS011;9420;50.876;7.012;2023-06-19T11:58:12;4.20;;;2.97;;
18580;SDS011;9420;50.876;7.012;2023-06-19T12:00:40;4.60;;;3.40;;
18580;SDS011;9420;50.876;7.012;2023-06-19T12:03:07;4.05;;;2.90;;
18580;SDS011;9420;50.876;7.012;2023-06-19T12:05:34;5.45;;;3.00;;
18580;SDS011;9420;50.876;7.012;2023-06-19T12:08:01;3.83;;;3.03;;
18580;SDS011;9420;50.876;7.012;2023-06-19T12:10:30;3.78;;;2.97;;
18580;SDS011;9420;50.876;7.012;2023-06-19T12:12:57;4.18;;;3.05;;
18580;SDS011;9420;50.876;7.012;2023-06-19T12:15:24;3.97;;;3.10;;
18580;SDS011;9420;50.876;7.012;2023-06-19T12:17:51;6.00;;;3.03;;
18580;SDS011;9420;50.876;7.012;2023-06-19T12:20:18;6.10;;;3.28;;
18580;SDS011;9420;50.876;7.012;2023-06-19T12:22:45;4.00;;;2.95;;
18580;SDS011;9420;50.876;7.012;2023-06-19T12:25:11;7.18;;;2.83;;
18580;SDS011;9420;50.876;7.012;2023-06-19T12:27:39;4.95;;;2.88;;
18580;SDS011;9420;50.876;7.012;2023-06-19T12:30:06;3.55;;;2.92;;
18580;SDS011;9420;50.876;7.012;2023-06-19T12:32:34;3.38;;;3.08;;
18580;SDS011;9420;50.876;7.012;2023-06-19T12:35:00;3.22;;;2.90;;
18580;SDS011;9420;50.876;7.012;2023-06-19T12:37:28;4.03;;;2.95;;
18580;SDS011;9420;50.876;7.012;2023-06-19T12:39:55;6.63;;;3.50;;
18580;SDS011;9420;50.876;7.012;2023-06-19T12:42:22;3.78;;;2.63;;
18580;SDS011;9420;50.876;7.012;2023-06-19T12:44:51;4.65;;;2.97;;
18580;SDS011;9420;50.876;7.012;2023-06-19T12:47:18;4.68;;;2.92;;
18580;SDS011;9420;50.876;7.012;2023-06-19T12:49:45;4.05;;;2.83;;
18580;SDS011;9420;50.876;7.012;2023-06-19T12:52:12;3.70;;;2.75;;
18580;SDS011;9420;50.876;7.012;2023-06-19T12:54:39;6.68;;;3.17;;
18580;SDS011;9420;50.876;7.012;2023-06-19T12:57:07;3.15;;;2.80;;
18580;SDS011;9420;50.876;7.012;2023-06-19T12:59:34;3.67;;;2.10;;
18580;SDS011;9420;50.876;7.012;2023-06-19T13:02:02;9.32;;;2.83;;
18580;SDS011;9420;50.876;7.012;2023-06-19T13:04:29;5.47;;;2.95;;
18580;SDS011;9420;50.876;7.012;2023-06-19T13:06:55;3.20;;;2.60;;
18580;SDS011;9420;50.876;7.012;2023-06-19T13:09:22;5.30;;;2.95;;
18580;SDS011;9420;50.876;7.012;2023-06-19T13:11:50;5.78;;;3.08;;
18580;SDS011;9420;50.876;7.012;2023-06-19T13:14:16;3.83;;;2.97;;
18580;SDS011;9420;50.876;7.012;2023-06-19T13:16:43;3.83;;;2.65;;
18580;SDS011;9420;50.876;7.012;2023-06-19T13:19:11;3.10;;;2.80;;
18580;SDS011;9420;50.876;7.012;2023-06-19T13:21:38;4.78;;;2.58;;
18580;SDS011;9420;50.876;7.012;2023-06-19T13:24:05;2.97;;;2.67;;
18580;SDS011;9420;50.876;7.012;2023-06-19T13:26:31;3.03;;;2.10;;
18580;SDS011;9420;50.876;7.012;2023-06-19T13:28:58;5.85;;;2.90;;
18580;SDS011;9420;50.876;7.012;2023-06-19T13:31:25;3.95;;;2.58;;
18580;SDS011;9420;50.876;7.012;2023-06-19T13:33:52;3.95;;;3.17;;
18580;SDS011;9420;50.876;7.012;2023-06-19T13:36:21;3.88;;;3.08;;
18580;SDS011;9420;50.876;7.012;2023-06-19T13:38:52;5.05;;;2.85;;
18580;SDS011;9420;50.876;7.012;2023-06-19T13:41:19;3.53;;;2.60;;
18580;SDS011;9420;50.876;7.012;2023-06-19T13:43:50;2.85;;;2.25;;
18580;SDS011;9420;50.876;7.012;2023-06-19T13:46:18;6.18;;;3.00;;
18580;SDS011;9420;50.876;7.012;2023-06-19T13:48:46;5.88;;;2.80;;
18580;SDS011;9420;50.876;7.012;2023-06-19T13:51:15;4.13;;;2.75;;
18580;SDS011;9420;50.876;7.012;2023-06-19T13:53:43;4.05;;;2.88;;
18580;SDS011;9420;50.876;7.012;2023-06-19T13:56:10;4.93;;;3.22;;
18580;SDS011;9420;50.876;7.012;2023-06-19T13:58:37;3.47;;;2.08;;
18580;SDS011;9420;50.876;7.012;2023-06-19T14:01:04;4.43;;;3.00;;
18580;SDS011;9420;50.876;7.012;2023-06-19T14:03:30;3.78;;;2.80;;
18580;SDS011;9420;50.876;7.012;2023-06-19T14:05:57;3.13;;;2.72;;
18580;SDS011;9420;50.876;7.012;2023-06-19T14:08:24;2.80;;;2.10;;
18580;SDS011;9420;50.876;7.012;2023-06-19T14:10:52;4.78;;;2.33;;
18580;SDS011;9420;50.876;7.012;2023-06-19T14:13:18;2.95;;;2.22;;
18580;SDS011;9420;50.876;7.012;2023-06-19T14:15:45;3.55;;;2.42;;
18580;SDS011;9420;50.876;7.012;2023-06-19T14:18:11;2.55;;;2.30;;
18580;SDS011;9420;50.876;7.012;2023-06-19T14:20:38;4.38;;;2.22;;
18580;SDS011;9420;50.876;7.012;2023-06-19T14:23:06;2.72;;;2.30;;
18580;SDS011;9420;50.876;7.012;2023-06-19T14:25:33;4.47;;;2.60;;
18580;SDS011;9420;50.876;7.012;2023-06-19T14:28:01;2.80;;;2.60;;
18580;SDS011;9420;50.876;7.012;2023-06-19T14:30:29;5.97;;;2.95;;
18580;SDS011;9420;50.876;7.012;2023-06-19T14:32:56;3.78;;;2.80;;
18580;SDS011;9420;50.876;7.012;2023-06-19T14:35:22;3.60;;;2.55;;
18580;SDS011;9420;50.876;7.012;2023-06-19T14:37:49;6.20;;;2.28;;
18580;SDS011;9420;50.876;7.012;2023-06-19T14:40:16;4.85;;;2.90;;
18580;SDS011;9420;50.876;7.012;2023-06-19T14:42:43;3.88;;;2.53;;
18580;SDS011;9420;50.876;7.012;2023-06-19T14:45:11;3.25;;;2.80;;
18580;SDS011;9420;50.876;7.012;2023-06-19T14:47:37;2.97;;;2.78;;
18580;SDS011;9420;50.876;7.012;2023-06-19T14:50:04;2.30;;;2.03;;
18580;SDS011;9420;50.876;7.012;2023-06-19T14:52:32;2.85;;;2.20;;
18580;SDS011;9420;50.876;7.012;2023-06-19T14:54:59;2.97;;;2.20;;
18580;SDS011;9420;50.876;7.012;2023-06-19T14:57:25;3.55;;;2.67;;
18580;SDS011;9420;50.876;7.012;2023-06-19T14:59:52;3.08;;;2.67;;
18580;SDS011;9420;50.876;7.012;2023-06-19T15:02:20;2.83;;;1.95;;